sensor_id;sensor_type;location;lat;lon;timestamp;pressure;altitude;pressure_sealevel;temperature;humidity
68489;BME280;55481;48.764;8.936;2023-08-07T00:01:32;96850;;;10.7;79.5
68489;BME280;55481;48.764;8.936;2023-08-07T00:04:08;96860;;;10.7;79.5
68489;BME280;55481;48.764;8.936;2023-08-07T00:09:04;96860;;;10.6;80
68489;BME280;55481;48.764;8.936;2023-08-07T00:11:35;96860;;;10.7;79.5
68489;BME280;55481;48.764;8.936;2023-08-07T00:14:06;96870;;;10.7;79.5
68489;BME280;55481;48.764;8.936;2023-08-07T00:16:37;96870;;;10.7;79.5
68489;BME280;55481;48.764;8.936;2023-08-07T00:19:09;96870;;;10.7;79.5
68489;BME280;55481;48.764;8.936;2023-08-07T00:21:40;96860;;;10.7;79.5
68489;BME280;55481;48.764;8.936;2023-08-07T00:24:09;96860;;;10.7;79.5
68489;BME280;55481;48.764;8.936;2023-08-07T00:26:40;96870;;;10.6;79.5
68489;BME280;55481;48.764;8.936;2023-08-07T00:29:12;96870;;;10.7;80
68489;BME280;55481;48.764;8.936;2023-08-07T00:31:49;96870;;;10.7;79.5
68489;BME280;55481;48.764;8.936;2023-08-07T00:34:26;96870;;;10.7;79.5
68489;BME280;55481;48.764;8.936;2023-08-07T00:39:26;96880;;;10.8;79.5
68489;BME280;55481;48.764;8.936;2023-08-07T00:44:20;96880;;;10.9;79.5
68489;BME280;55481;48.764;8.936;2023-08-07T00:46:51;96880;;;11;79
68489;BME280;55481;48.764;8.936;2023-08-07T00:49:21;96880;;;10.9;79.5
68489;BME280;55481;48.764;8.936;2023-08-07T00:54:15;96880;;;11;79.5
68489;BME280;55481;48.764;8.936;2023-08-07T00:56:46;96880;;;11;79.5
68489;BME280;55481;48.764;8.936;2023-08-07T00:59:18;96890;;;11.1;79.5
68489;BME280;55481;48.764;8.936;2023-08-07T01:06:55;96890;;;11.2;79.5
68489;BME280;55481;48.764;8.936;2023-08-07T01:09:25;96890;;;11.2;79
68489;BME280;55481;48.764;8.936;2023-08-07T01:16:58;96890;;;11.3;79.5
68489;BME280;55481;48.764;8.936;2023-08-07T01:19:23;96900;;;11.3;79
68489;BME280;55481;48.764;8.936;2023-08-07T01:22:22;96900;;;11.3;79.5
68489;BME280;55481;48.764;8.936;2023-08-07T01:24:22;96900;;;11.3;79.5
68489;BME280;55481;48.764;8.936;2023-08-07T01:27:02;96910;;;11.3;79.5
68489;BME280;55481;48.764;8.936;2023-08-07T01:29:26;96910;;;11.3;79
68489;BME280;55481;48.764;8.936;2023-08-07T01:31:55;96910;;;11.3;79.5
68489;BME280;55481;48.764;8.936;2023-08-07T01:34:26;96900;;;11.3;79.5
68489;BME280;55481;48.764;8.936;2023-08-07T01:36:57;96910;;;11.3;79.5
68489;BME280;55481;48.764;8.936;2023-08-07T01:39:35;96910;;;11.3;79.5
68489;BME280;55481;48.764;8.936;2023-08-07T01:44:43;96910;;;11.3;79.5
68489;BME280;55481;48.764;8.936;2023-08-07T01:49:44;96920;;;11.4;79.5
68489;BME280;55481;48.764;8.936;2023-08-07T01:52:20;96920;;;11.4;79.5
68489;BME280;55481;48.764;8.936;2023-08-07T01:54:36;96920;;;11.3;79.5
68489;BME280;55481;48.764;8.936;2023-08-07T01:59:37;96910;;;11.3;79.5
68489;BME280;55481;48.764;8.936;2023-08-07T02:04:37;96910;;;11.3;79.5
68489;BME280;55481;48.764;8.936;2023-08-07T02:07:15;96910;;;11.3;79.5
68489;BME280;55481;48.764;8.936;2023-08-07T02:09:51;96910;;;11.3;79.5
68489;BME280;55481;48.764;8.936;2023-08-07T02:12:08;96920;;;11.3;79.5
68489;BME280;55481;48.764;8.936;2023-08-07T02:14:38;96920;;;11.4;79.5
68489;BME280;55481;48.764;8.936;2023-08-07T02:19:32;96930;;;11.3;79.5
68489;BME280;55481;48.764;8.936;2023-08-07T02:22:03;96930;;;11.4;79.5
68489;BME280;55481;48.764;8.936;2023-08-07T02:24:34;96930;;;11.4;79.5
68489;BME280;55481;48.764;8.936;2023-08-07T02:27:12;96930;;;11.3;79.5
68489;BME280;55481;48.764;8.936;2023-08-07T02:29:42;96930;;;11.3;79.5
68489;BME280;55481;48.764;8.936;2023-08-07T02:34:36;96930;;;11.3;79.5
68489;BME280;55481;48.764;8.936;2023-08-07T02:37:06;96920;;;11.2;79.5
68489;BME280;55481;48.764;8.936;2023-08-07T02:39:37;96930;;;11.2;79.5
68489;BME280;55481;48.764;8.936;2023-08-07T02:44:32;96920;;;11.1;79.5
68489;BME280;55481;48.764;8.936;2023-08-07T02:47:03;96920;;;11;79.5
68489;BME280;55481;48.764;8.936;2023-08-07T02:49:34;96910;;;11;79.5
68489;BME280;55481;48.764;8.936;2023-08-07T02:57:06;96930;;;10.9;79.5
68489;BME280;55481;48.764;8.936;2023-08-07T02:59:37;96930;;;10.9;79.5
68489;BME280;55481;48.764;8.936;2023-08-07T03:04:52;96930;;;10.8;79.5
68489;BME280;55481;48.764;8.936;2023-08-07T03:07:22;96930;;;10.8;80
68489;BME280;55481;48.764;8.936;2023-08-07T03:09:52;96930;;;10.9;79.5
68489;BME280;55481;48.764;8.936;2023-08-07T03:12:22;96930;;;10.9;79.5
68489;BME280;55481;48.764;8.936;2023-08-07T03:14:52;96940;;;10.9;79.5
68489;BME280;55481;48.764;8.936;2023-08-07T03:17:23;96940;;;11;79.5
68489;BME280;55481;48.764;8.936;2023-08-07T03:19:52;96950;;;10.9;79.5
68489;BME280;55481;48.764;8.936;2023-08-07T03:22:23;96940;;;10.9;79.5
68489;BME280;55481;48.764;8.936;2023-08-07T03:27:19;96950;;;10.9;79.5
68489;BME280;55481;48.764;8.936;2023-08-07T03:29:50;96940;;;10.9;79.5
68489;BME280;55481;48.764;8.936;2023-08-07T03:34:58;96950;;;10.8;80
68489;BME280;55481;48.764;8.936;2023-08-07T03:37:28;96950;;;10.8;80
68489;BME280;55481;48.764;8.936;2023-08-07T03:39:58;96950;;;10.8;80
68489;BME280;55481;48.764;8.936;2023-08-07T03:44:52;96950;;;10.9;79.5
68489;BME280;55481;48.764;8.936;2023-08-07T03:47:23;96950;;;10.9;79.5
68489;BME280;55481;48.764;8.936;2023-08-07T03:50:01;96950;;;10.8;79.5
68489;BME280;55481;48.764;8.936;2023-08-07T03:54:56;96950;;;10.8;79.5
68489;BME280;55481;48.764;8.936;2023-08-07T03:57:31;96960;;;10.8;80
68489;BME280;55481;48.764;8.936;2023-08-07T04:02:31;96950;;;10.8;79.5
68489;BME280;55481;48.764;8.936;2023-08-07T04:05:00;96960;;;10.8;79.5
68489;BME280;55481;48.764;8.936;2023-08-07T04:07:43;96960;;;10.7;80
68489;BME280;55481;48.764;8.936;2023-08-07T04:10:15;96950;;;10.7;80
68489;BME280;55481;48.764;8.936;2023-08-07T04:12:44;96950;;;10.7;80
68489;BME280;55481;48.764;8.936;2023-08-07T04:15:23;96950;;;10.7;80
68489;BME280;55481;48.764;8.936;2023-08-07T04:17:38;96950;;;10.7;80
68489;BME280;55481;48.764;8.936;2023-08-07T04:20:08;96950;;;10.8;79.5
68489;BME280;55481;48.764;8.936;2023-08-07T04:25:02;96950;;;10.9;79.5
68489;BME280;55481;48.764;8.936;2023-08-07T04:27:32;96950;;;10.8;79.5
68489;BME280;55481;48.764;8.936;2023-08-07T04:30:11;96950;;;10.9;79.5
68489;BME280;55481;48.764;8.936;2023-08-07T04:32:35;96960;;;10.9;79.5
68489;BME280;55481;48.764;8.936;2023-08-07T04:35:12;96950;;;10.9;79.5
68489;BME280;55481;48.764;8.936;2023-08-07T04:37:43;96960;;;11;79.5
68489;BME280;55481;48.764;8.936;2023-08-07T04:40:08;96960;;;11.1;79.5
68489;BME280;55481;48.764;8.936;2023-08-07T04:42:40;96960;;;11.1;79
68489;BME280;55481;48.764;8.936;2023-08-07T04:45:10;96970;;;11.1;79
68489;BME280;55481;48.764;8.936;2023-08-07T04:50:12;96960;;;11.2;79
68489;BME280;55481;48.764;8.936;2023-08-07T04:55:05;96960;;;11.2;79.5
68489;BME280;55481;48.764;8.936;2023-08-07T04:57:36;96960;;;11.2;79.5
68489;BME280;55481;48.764;8.936;2023-08-07T05:05:09;96970;;;11.4;79
68489;BME280;55481;48.764;8.936;2023-08-07T05:07:39;96960;;;11.4;79
68489;BME280;55481;48.764;8.936;2023-08-07T05:10:10;96960;;;11.4;79
68489;BME280;55481;48.764;8.936;2023-08-07T05:12:57;96960;;;11.5;79
68489;BME280;55481;48.764;8.936;2023-08-07T05:15:25;96960;;;11.5;79
68489;BME280;55481;48.764;8.936;2023-08-07T05:17:55;96970;;;11.6;79
68489;BME280;55481;48.764;8.936;2023-08-07T05:20:25;96960;;;11.7;79
68489;BME280;55481;48.764;8.936;2023-08-07T05:22:56;96960;;;11.7;79
68489;BME280;55481;48.764;8.936;2023-08-07T05:25:25;96960;;;11.8;79
68489;BME280;55481;48.764;8.936;2023-08-07T05:27:49;96970;;;11.8;79
68489;BME280;55481;48.764;8.936;2023-08-07T05:30:21;96970;;;11.9;79
68489;BME280;55481;48.764;8.936;2023-08-07T05:32:58;96980;;;12;78.5
68489;BME280;55481;48.764;8.936;2023-08-07T05:40:44;96980;;;12.1;78.5
68489;BME280;55481;48.764;8.936;2023-08-07T05:43:02;96980;;;12.1;78.5
68489;BME280;55481;48.764;8.936;2023-08-07T05:47:55;96980;;;12.1;79
68489;BME280;55481;48.764;8.936;2023-08-07T05:50:26;96990;;;12.2;78.5
68489;BME280;55481;48.764;8.936;2023-08-07T05:52:57;96990;;;12.2;79
68489;BME280;55481;48.764;8.936;2023-08-07T05:55:28;96990;;;12.3;78.5
68489;BME280;55481;48.764;8.936;2023-08-07T05:58:06;96990;;;12.1;79
68489;BME280;55481;48.764;8.936;2023-08-07T06:00:49;97000;;;12.1;79.5
68489;BME280;55481;48.764;8.936;2023-08-07T06:05:31;97000;;;12.2;79
68489;BME280;55481;48.764;8.936;2023-08-07T06:08:02;97010;;;12.2;79
68489;BME280;55481;48.764;8.936;2023-08-07T06:10:33;97010;;;12.2;79
68489;BME280;55481;48.764;8.936;2023-08-07T06:13:03;97020;;;12.3;79
68489;BME280;55481;48.764;8.936;2023-08-07T06:15:34;97010;;;12.3;79
68489;BME280;55481;48.764;8.936;2023-08-07T06:18:05;97010;;;12.3;79
68489;BME280;55481;48.764;8.936;2023-08-07T06:20:36;97010;;;12.3;79
68489;BME280;55481;48.764;8.936;2023-08-07T06:23:07;97010;;;12.4;79
68489;BME280;55481;48.764;8.936;2023-08-07T06:25:45;97000;;;12.5;79
68489;BME280;55481;48.764;8.936;2023-08-07T06:28:16;97010;;;12.6;78.5
68489;BME280;55481;48.764;8.936;2023-08-07T06:33:11;97020;;;12.7;78.5
68489;BME280;55481;48.764;8.936;2023-08-07T06:35:42;97020;;;12.7;78.5
68489;BME280;55481;48.764;8.936;2023-08-07T06:38:13;97030;;;12.7;78.5
68489;BME280;55481;48.764;8.936;2023-08-07T06:40:44;97030;;;12.7;78.5
68489;BME280;55481;48.764;8.936;2023-08-07T06:43:15;97030;;;12.8;78.5
68489;BME280;55481;48.764;8.936;2023-08-07T06:45:46;97040;;;12.9;78.5
68489;BME280;55481;48.764;8.936;2023-08-07T06:48:10;97040;;;13;78.5
68489;BME280;55481;48.764;8.936;2023-08-07T07:00:44;97040;;;12.8;79
68489;BME280;55481;48.764;8.936;2023-08-07T07:03:15;97040;;;12.7;79
68489;BME280;55481;48.764;8.936;2023-08-07T07:05:45;97040;;;12.7;79
68489;BME280;55481;48.764;8.936;2023-08-07T07:10:59;97040;;;12.7;79
68489;BME280;55481;48.764;8.936;2023-08-07T07:13:30;97040;;;12.8;78.5
68489;BME280;55481;48.764;8.936;2023-08-07T07:18:25;97040;;;13.5;77.5
68489;BME280;55481;48.764;8.936;2023-08-07T07:21:01;97040;;;13.4;77.5
68489;BME280;55481;48.764;8.936;2023-08-07T07:23:32;97040;;;13.8;77
68489;BME280;55481;48.764;8.936;2023-08-07T07:28:28;97040;;;14.4;76
68489;BME280;55481;48.764;8.936;2023-08-07T07:33:36;97040;;;14.8;75.5
68489;BME280;55481;48.764;8.936;2023-08-07T07:36:06;97050;;;14.7;75.5
68489;BME280;55481;48.764;8.936;2023-08-07T07:41:01;97060;;;14.5;76.5
68489;BME280;55481;48.764;8.936;2023-08-07T07:43:31;97060;;;14.4;77
68489;BME280;55481;48.764;8.936;2023-08-07T07:46:02;97070;;;14.1;77.5
68489;BME280;55481;48.764;8.936;2023-08-07T07:48:33;97070;;;14;78
68489;BME280;55481;48.764;8.936;2023-08-07T07:51:11;97070;;;14;78.5
68489;BME280;55481;48.764;8.936;2023-08-07T07:58:44;97070;;;14;78
68489;BME280;55481;48.764;8.936;2023-08-07T08:01:14;97070;;;14.1;78
68489;BME280;55481;48.764;8.936;2023-08-07T08:03:39;97070;;;14.1;78
68489;BME280;55481;48.764;8.936;2023-08-07T08:06:12;97070;;;14.1;77.5
68489;BME280;55481;48.764;8.936;2023-08-07T08:08:40;97070;;;14.3;77.5
68489;BME280;55481;48.764;8.936;2023-08-07T08:11:11;97060;;;14.9;76
68489;BME280;55481;48.764;8.936;2023-08-07T08:13:49;97060;;;15.4;75
68489;BME280;55481;48.764;8.936;2023-08-07T08:16:14;97060;;;15.8;74
68489;BME280;55481;48.764;8.936;2023-08-07T08:23:46;97070;;;15.8;75
68489;BME280;55481;48.764;8.936;2023-08-07T08:26:17;97080;;;15.8;75
68489;BME280;55481;48.764;8.936;2023-08-07T08:28:48;97070;;;15.9;75
68489;BME280;55481;48.764;8.936;2023-08-07T08:31:19;97070;;;15.8;75
68489;BME280;55481;48.764;8.936;2023-08-07T08:33:50;97080;;;15.8;75.5
68489;BME280;55481;48.764;8.936;2023-08-07T08:36:21;97080;;;15.6;76
68489;BME280;55481;48.764;8.936;2023-08-07T08:38:51;97080;;;15.5;76
68489;BME280;55481;48.764;8.936;2023-08-07T08:41:22;97070;;;15.6;76
68489;BME280;55481;48.764;8.936;2023-08-07T08:43:54;97080;;;15.4;76.5
68489;BME280;55481;48.764;8.936;2023-08-07T08:46:32;97080;;;15.3;77
68489;BME280;55481;48.764;8.936;2023-08-07T08:49:08;97080;;;15.2;77
68489;BME280;55481;48.764;8.936;2023-08-07T08:53:56;97090;;;14.9;77.5
68489;BME280;55481;48.764;8.936;2023-08-07T08:56:26;97090;;;14.8;77.5
68489;BME280;55481;48.764;8.936;2023-08-07T08:58:57;97090;;;14.7;77.5
68489;BME280;55481;48.764;8.936;2023-08-07T09:01:28;97090;;;14.7;77.5
68489;BME280;55481;48.764;8.936;2023-08-07T09:03:59;97080;;;15.3;76.5
68489;BME280;55481;48.764;8.936;2023-08-07T09:06:31;97080;;;15.7;75.5
68489;BME280;55481;48.764;8.936;2023-08-07T09:09:01;97080;;;16.2;74.5
68489;BME280;55481;48.764;8.936;2023-08-07T09:11:31;97080;;;16.2;74.5
68489;BME280;55481;48.764;8.936;2023-08-07T09:14:05;97080;;;16.1;75
68489;BME280;55481;48.764;8.936;2023-08-07T09:16:40;97080;;;16.2;74.5
68489;BME280;55481;48.764;8.936;2023-08-07T09:19:11;97070;;;16.6;74
68489;BME280;55481;48.764;8.936;2023-08-07T09:21:35;97080;;;16.4;74
68489;BME280;55481;48.764;8.936;2023-08-07T09:23:59;97080;;;16.2;75
68489;BME280;55481;48.764;8.936;2023-08-07T09:26:31;97090;;;16.3;75
68489;BME280;55481;48.764;8.936;2023-08-07T09:29:02;97090;;;16.2;75.5
68489;BME280;55481;48.764;8.936;2023-08-07T09:31:32;97100;;;16.1;75.5
68489;BME280;55481;48.764;8.936;2023-08-07T09:34:04;97100;;;16;76
68489;BME280;55481;48.764;8.936;2023-08-07T09:36:33;97110;;;15.8;76.5
68489;BME280;55481;48.764;8.936;2023-08-07T09:39:04;97110;;;15.8;76.5
68489;BME280;55481;48.764;8.936;2023-08-07T09:46:40;97130;;;15.3;77
68489;BME280;55481;48.764;8.936;2023-08-07T09:49:07;97130;;;15.2;77.5
68489;BME280;55481;48.764;8.936;2023-08-07T09:51:46;97130;;;15.4;77
68489;BME280;55481;48.764;8.936;2023-08-07T09:54:22;97120;;;16;75.5
68489;BME280;55481;48.764;8.936;2023-08-07T09:56:54;97130;;;16.5;74.5
68489;BME280;55481;48.764;8.936;2023-08-07T09:59:22;97120;;;17;73
68489;BME280;55481;48.764;8.936;2023-08-07T10:01:48;97120;;;17.9;71.5
68489;BME280;55481;48.764;8.936;2023-08-07T10:04:18;97120;;;17.4;72.5
68489;BME280;55481;48.764;8.936;2023-08-07T10:09:21;97120;;;17.5;73
68489;BME280;55481;48.764;8.936;2023-08-07T10:12:01;97110;;;17.1;74
68489;BME280;55481;48.764;8.936;2023-08-07T10:14:28;97120;;;16.6;75.5
68489;BME280;55481;48.764;8.936;2023-08-07T10:19:25;97130;;;16.6;75.5
68489;BME280;55481;48.764;8.936;2023-08-07T10:21:55;97120;;;16.8;75
68489;BME280;55481;48.764;8.936;2023-08-07T10:24:26;97130;;;16.9;74.5
68489;BME280;55481;48.764;8.936;2023-08-07T10:26:59;97130;;;16.7;75
68489;BME280;55481;48.764;8.936;2023-08-07T10:29:28;97120;;;16.8;75
68489;BME280;55481;48.764;8.936;2023-08-07T10:34:30;97130;;;16.9;74.5
68489;BME280;55481;48.764;8.936;2023-08-07T10:37:01;97130;;;17;74.5
68489;BME280;55481;48.764;8.936;2023-08-07T10:39:32;97130;;;16.7;75
68489;BME280;55481;48.764;8.936;2023-08-07T10:42:03;97130;;;16.3;76
68489;BME280;55481;48.764;8.936;2023-08-07T10:44:44;97140;;;16.1;76.5
68489;BME280;55481;48.764;8.936;2023-08-07T10:47:05;97140;;;16.1;76.5
68489;BME280;55481;48.764;8.936;2023-08-07T10:49:37;97150;;;16;76.5
68489;BME280;55481;48.764;8.936;2023-08-07T10:52:08;97140;;;16;76.5
68489;BME280;55481;48.764;8.936;2023-08-07T10:54:39;97140;;;16.1;76
68489;BME280;55481;48.764;8.936;2023-08-07T10:57:17;97130;;;16.3;75.5
68489;BME280;55481;48.764;8.936;2023-08-07T11:00:02;97140;;;16.4;75
68489;BME280;55481;48.764;8.936;2023-08-07T11:02:11;97140;;;16.4;75
68489;BME280;55481;48.764;8.936;2023-08-07T11:04:42;97140;;;16.6;75
68489;BME280;55481;48.764;8.936;2023-08-07T11:09:44;97130;;;16.9;74.5
68489;BME280;55481;48.764;8.936;2023-08-07T11:12:14;97130;;;16.6;75
68489;BME280;55481;48.764;8.936;2023-08-07T11:14:45;97140;;;16.2;75.5
68489;BME280;55481;48.764;8.936;2023-08-07T11:17:16;97140;;;16.2;76
68489;BME280;55481;48.764;8.936;2023-08-07T11:19:48;97140;;;16.1;76
68489;BME280;55481;48.764;8.936;2023-08-07T11:24:50;97150;;;15.4;77
68489;BME280;55481;48.764;8.936;2023-08-07T11:27:21;97150;;;15.2;77.5
68489;BME280;55481;48.764;8.936;2023-08-07T11:29:58;97150;;;15.2;77
68489;BME280;55481;48.764;8.936;2023-08-07T11:32:28;97150;;;15.3;77
68489;BME280;55481;48.764;8.936;2023-08-07T11:34:59;97150;;;15.1;77
68489;BME280;55481;48.764;8.936;2023-08-07T11:42:33;97160;;;14.9;77
68489;BME280;55481;48.764;8.936;2023-08-07T11:45:09;97160;;;14.9;77
68489;BME280;55481;48.764;8.936;2023-08-07T11:49:56;97160;;;15.2;76.5
68489;BME280;55481;48.764;8.936;2023-08-07T11:52:27;97170;;;15.3;76
68489;BME280;55481;48.764;8.936;2023-08-07T11:55:01;97170;;;15.1;76.5
68489;BME280;55481;48.764;8.936;2023-08-07T11:57:29;97170;;;15;77
68489;BME280;55481;48.764;8.936;2023-08-07T12:00:07;97170;;;15;76.5
68489;BME280;55481;48.764;8.936;2023-08-07T12:02:38;97180;;;14.9;77
68489;BME280;55481;48.764;8.936;2023-08-07T12:07:33;97190;;;14.4;77.5
68489;BME280;55481;48.764;8.936;2023-08-07T12:10:08;97180;;;14.4;78
68489;BME280;55481;48.764;8.936;2023-08-07T12:12:37;97180;;;14.9;76.5
68489;BME280;55481;48.764;8.936;2023-08-07T12:15:07;97180;;;15.2;76
68489;BME280;55481;48.764;8.936;2023-08-07T12:17:37;97180;;;15.6;75
68489;BME280;55481;48.764;8.936;2023-08-07T12:20:15;97170;;;15.9;74.5
68489;BME280;55481;48.764;8.936;2023-08-07T12:22:40;97170;;;16.1;74
68489;BME280;55481;48.764;8.936;2023-08-07T12:25:10;97160;;;16.2;74
68489;BME280;55481;48.764;8.936;2023-08-07T12:30:12;97160;;;16.3;74
68489;BME280;55481;48.764;8.936;2023-08-07T12:32:44;97170;;;16.2;74.5
68489;BME280;55481;48.764;8.936;2023-08-07T12:35:14;97170;;;16.2;74.5
68489;BME280;55481;48.764;8.936;2023-08-07T12:37:45;97160;;;16.5;74
68489;BME280;55481;48.764;8.936;2023-08-07T12:40:16;97160;;;16.6;73.5
68489;BME280;55481;48.764;8.936;2023-08-07T12:45:18;97160;;;16.7;73.5
68489;BME280;55481;48.764;8.936;2023-08-07T12:47:49;97160;;;16.7;74
68489;BME280;55481;48.764;8.936;2023-08-07T12:50:27;97160;;;17;73.5
68489;BME280;55481;48.764;8.936;2023-08-07T12:58:12;97160;;;17.6;72.5
68489;BME280;55481;48.764;8.936;2023-08-07T13:00:29;97160;;;17.2;73.5
68489;BME280;55481;48.764;8.936;2023-08-07T13:08:00;97160;;;16.1;76
68489;BME280;55481;48.764;8.936;2023-08-07T13:10:33;97160;;;16;76.5
68489;BME280;55481;48.764;8.936;2023-08-07T13:12:59;97160;;;15.9;76.5
68489;BME280;55481;48.764;8.936;2023-08-07T13:15:24;97160;;;15.9;76
68489;BME280;55481;48.764;8.936;2023-08-07T13:18:02;97160;;;16;76
68489;BME280;55481;48.764;8.936;2023-08-07T13:23:01;97160;;;16.8;74
68489;BME280;55481;48.764;8.936;2023-08-07T13:28:05;97130;;;20.5;66
68489;BME280;55481;48.764;8.936;2023-08-07T13:30:36;97140;;;20.9;66
68489;BME280;55481;48.764;8.936;2023-08-07T13:33:05;97140;;;20;68.5
68489;BME280;55481;48.764;8.936;2023-08-07T13:38:00;97150;;;20;70
68489;BME280;55481;48.764;8.936;2023-08-07T13:40:30;97150;;;19.5;71
68489;BME280;55481;48.764;8.936;2023-08-07T13:43:02;97150;;;19.6;71.5
68489;BME280;55481;48.764;8.936;2023-08-07T13:47:56;97130;;;20.8;69
68489;BME280;55481;48.764;8.936;2023-08-07T13:50:27;97130;;;22.3;65.5
68489;BME280;55481;48.764;8.936;2023-08-07T13:52:58;97140;;;22.3;66
68489;BME280;55481;48.764;8.936;2023-08-07T13:55:28;97150;;;20.7;70
68489;BME280;55481;48.764;8.936;2023-08-07T13:57:59;97160;;;19.6;72.5
68489;BME280;55481;48.764;8.936;2023-08-07T14:00:31;97160;;;19.7;73.5
68489;BME280;55481;48.764;8.936;2023-08-07T14:03:01;97150;;;21.7;68.5
68489;BME280;55481;48.764;8.936;2023-08-07T14:05:31;97140;;;23.1;64.5
68489;BME280;55481;48.764;8.936;2023-08-07T14:08:02;97160;;;21;69.5
68489;BME280;55481;48.764;8.936;2023-08-07T14:18:24;97180;;;18.8;74.5
68489;BME280;55481;48.764;8.936;2023-08-07T14:20:48;97180;;;18.3;75
68489;BME280;55481;48.764;8.936;2023-08-07T14:25:42;97190;;;17.8;76
68489;BME280;55481;48.764;8.936;2023-08-07T14:28:14;97190;;;17.8;75.5
68489;BME280;55481;48.764;8.936;2023-08-07T14:30:47;97190;;;18.1;75
68489;BME280;55481;48.764;8.936;2023-08-07T14:33:15;97180;;;18.8;72.5
68489;BME280;55481;48.764;8.936;2023-08-07T14:35:46;97200;;;18.4;73.5
68489;BME280;55481;48.764;8.936;2023-08-07T14:38:17;97190;;;21.3;67
68489;BME280;55481;48.764;8.936;2023-08-07T14:40:54;97190;;;22.5;64
68489;BME280;55481;48.764;8.936;2023-08-07T14:43:28;97180;;;23.8;61.5
68489;BME280;55481;48.764;8.936;2023-08-07T14:48:41;97180;;;23.4;63.5
68489;BME280;55481;48.764;8.936;2023-08-07T14:53:28;97180;;;24.1;62.5
68489;BME280;55481;48.764;8.936;2023-08-07T14:55:58;97170;;;24.2;62.5
68489;BME280;55481;48.764;8.936;2023-08-07T15:00:53;97180;;;23.9;63.5
68489;BME280;55481;48.764;8.936;2023-08-07T15:03:23;97190;;;21.5;70
68489;BME280;55481;48.764;8.936;2023-08-07T15:05:54;97180;;;21.5;69
68489;BME280;55481;48.764;8.936;2023-08-07T15:08:32;97180;;;19.5;73.5
68489;BME280;55481;48.764;8.936;2023-08-07T15:13:27;97190;;;18.7;75
68489;BME280;55481;48.764;8.936;2023-08-07T15:15:59;97180;;;18.8;74
68489;BME280;55481;48.764;8.936;2023-08-07T15:18:30;97180;;;19.7;71.5
68489;BME280;55481;48.764;8.936;2023-08-07T15:21:01;97180;;;20;70
68489;BME280;55481;48.764;8.936;2023-08-07T15:23:32;97190;;;19.4;71
68489;BME280;55481;48.764;8.936;2023-08-07T15:26:02;97190;;;19;72
68489;BME280;55481;48.764;8.936;2023-08-07T15:28:39;97200;;;18.6;73
68489;BME280;55481;48.764;8.936;2023-08-07T15:31:04;97200;;;18.1;73.5
68489;BME280;55481;48.764;8.936;2023-08-07T15:33:41;97200;;;18;73.5
68489;BME280;55481;48.764;8.936;2023-08-07T15:38:43;97210;;;17.6;74
68489;BME280;55481;48.764;8.936;2023-08-07T15:41:21;97210;;;17.5;74
68489;BME280;55481;48.764;8.936;2023-08-07T15:43:57;97210;;;17.5;74
68489;BME280;55481;48.764;8.936;2023-08-07T15:46:17;97210;;;17.6;73.5
68489;BME280;55481;48.764;8.936;2023-08-07T15:51:08;97210;;;17.6;73
68489;BME280;55481;48.764;8.936;2023-08-07T15:53:46;97210;;;17.8;72.5
68489;BME280;55481;48.764;8.936;2023-08-07T15:56:17;97200;;;18.2;71.5
68489;BME280;55481;48.764;8.936;2023-08-07T16:01:13;97190;;;18.7;70
68489;BME280;55481;48.764;8.936;2023-08-07T16:06:21;97190;;;18.5;70.5
68489;BME280;55481;48.764;8.936;2023-08-07T16:08:52;97200;;;18.3;71
68489;BME280;55481;48.764;8.936;2023-08-07T16:13:45;97190;;;18.2;71
68489;BME280;55481;48.764;8.936;2023-08-07T16:16:16;97190;;;18.2;71
68489;BME280;55481;48.764;8.936;2023-08-07T16:18:46;97200;;;18;71.5
68489;BME280;55481;48.764;8.936;2023-08-07T16:21:24;97200;;;18;71.5
68489;BME280;55481;48.764;8.936;2023-08-07T16:23:55;97190;;;18.3;70.5
68489;BME280;55481;48.764;8.936;2023-08-07T16:28:51;97190;;;18.2;70.5
68489;BME280;55481;48.764;8.936;2023-08-07T16:31:28;97190;;;17.9;71
68489;BME280;55481;48.764;8.936;2023-08-07T16:36:28;97200;;;17.3;72.5
68489;BME280;55481;48.764;8.936;2023-08-07T16:38:58;97190;;;17.2;72.5
68489;BME280;55481;48.764;8.936;2023-08-07T16:41:22;97210;;;17.1;72.5
68489;BME280;55481;48.764;8.936;2023-08-07T16:47:17;97190;;;18;71.5
68489;BME280;55481;48.764;8.936;2023-08-07T16:49:48;97200;;;17.8;71.5
68489;BME280;55481;48.764;8.936;2023-08-07T16:57:20;97210;;;17.2;72
68489;BME280;55481;48.764;8.936;2023-08-07T16:59:52;97210;;;17;72
68489;BME280;55481;48.764;8.936;2023-08-07T17:02:22;97210;;;16.8;72
68489;BME280;55481;48.764;8.936;2023-08-07T17:04:52;97210;;;16.8;72
68489;BME280;55481;48.764;8.936;2023-08-07T17:07:31;97210;;;16.9;71.5
68489;BME280;55481;48.764;8.936;2023-08-07T17:10:01;97210;;;17.1;71
68489;BME280;55481;48.764;8.936;2023-08-07T17:12:32;97210;;;17.2;71
68489;BME280;55481;48.764;8.936;2023-08-07T17:17:27;97210;;;17.3;70.5
68489;BME280;55481;48.764;8.936;2023-08-07T17:24:59;97200;;;17.1;71
68489;BME280;55481;48.764;8.936;2023-08-07T17:30:27;97200;;;17;71
68489;BME280;55481;48.764;8.936;2023-08-07T17:32:44;97200;;;16.9;71
68489;BME280;55481;48.764;8.936;2023-08-07T17:37:38;97200;;;16.8;71
68489;BME280;55481;48.764;8.936;2023-08-07T17:40:10;97200;;;16.8;71
68489;BME280;55481;48.764;8.936;2023-08-07T17:42:40;97190;;;16.8;71
68489;BME280;55481;48.764;8.936;2023-08-07T17:45:10;97200;;;16.7;71
68489;BME280;55481;48.764;8.936;2023-08-07T17:47:41;97210;;;16.7;71
68489;BME280;55481;48.764;8.936;2023-08-07T17:50:18;97210;;;16.6;71
68489;BME280;55481;48.764;8.936;2023-08-07T17:52:49;97210;;;16.6;71
68489;BME280;55481;48.764;8.936;2023-08-07T17:57:43;97210;;;16.5;71
68489;BME280;55481;48.764;8.936;2023-08-07T18:00:15;97210;;;16.4;71
68489;BME280;55481;48.764;8.936;2023-08-07T18:02:46;97210;;;16.3;71
68489;BME280;55481;48.764;8.936;2023-08-07T18:07:53;97220;;;16.2;71.5
68489;BME280;55481;48.764;8.936;2023-08-07T18:12:47;97220;;;16.1;71.5
68489;BME280;55481;48.764;8.936;2023-08-07T18:15:24;97230;;;15.9;71.5
68489;BME280;55481;48.764;8.936;2023-08-07T18:17:56;97230;;;15.9;71.5
68489;BME280;55481;48.764;8.936;2023-08-07T18:25:29;97230;;;15.7;71.5
68489;BME280;55481;48.764;8.936;2023-08-07T18:27:59;97230;;;15.7;71.5
68489;BME280;55481;48.764;8.936;2023-08-07T18:32:53;97230;;;15.5;72